sensor_id;sensor_type;location;lat;lon;timestamp;pressure;altitude;pressure_sealevel;temperature;humidity
64679;BME280;51094;53.864;27.676;2023-08-21T00:00:48;99474.19;;;21.33;74.57
64679;BME280;51094;53.864;27.676;2023-08-21T00:03:15;99476.84;;;21.33;74.88
64679;BME280;51094;53.864;27.676;2023-08-21T00:05:42;99471.84;;;21.38;75.04
64679;BME280;51094;53.864;27.676;2023-08-21T00:08:08;99476.47;;;21.44;74.81
64679;BME280;51094;53.864;27.676;2023-08-21T00:10:38;99472.81;;;21.45;74.92
64679;BME280;51094;53.864;27.676;2023-08-21T00:13:05;99468.19;;;21.47;75.06
64679;BME280;51094;53.864;27.676;2023-08-21T00:15:32;99471.00;;;21.45;75.00
64679;BME280;51094;53.864;27.676;2023-08-21T00:17:59;99472.31;;;21.49;74.95
64679;BME280;51094;53.864;27.676;2023-08-21T00:20:27;99465.84;;;21.52;74.94
64679;BME280;51094;53.864;27.676;2023-08-21T00:22:54;99466.03;;;21.50;75.01
64679;BME280;51094;53.864;27.676;2023-08-21T00:25:21;99465.84;;;21.52;75.10
64679;BME280;51094;53.864;27.676;2023-08-21T00:27:48;99455.59;;;21.49;74.92
64679;BME280;51094;53.864;27.676;2023-08-21T00:30:15;99456.78;;;21.46;75.21
64679;BME280;51094;53.864;27.676;2023-08-21T00:32:42;99461.75;;;21.41;75.32
64679;BME280;51094;53.864;27.676;2023-08-21T00:35:09;99456.16;;;21.36;75.21
64679;BME280;51094;53.864;27.676;2023-08-21T00:37:36;99462.13;;;21.30;75.18
64679;BME280;51094;53.864;27.676;2023-08-21T00:40:03;99460.38;;;21.22;75.80
64679;BME280;51094;53.864;27.676;2023-08-21T00:42:31;99458.53;;;21.23;75.85
64679;BME280;51094;53.864;27.676;2023-08-21T00:44:59;99451.41;;;21.23;76.03
64679;BME280;51094;53.864;27.676;2023-08-21T00:47:26;99452.72;;;21.28;76.35
64679;BME280;51094;53.864;27.676;2023-08-21T00:49:52;99449.72;;;21.31;75.93
64679;BME280;51094;53.864;27.676;2023-08-21T00:52:19;99442.66;;;21.23;76.04
64679;BME280;51094;53.864;27.676;2023-08-21T00:54:46;99441.19;;;21.20;76.20
64679;BME280;51094;53.864;27.676;2023-08-21T00:57:13;99441.19;;;21.20;76.55
64679;BME280;51094;53.864;27.676;2023-08-21T00:59:40;99447.94;;;21.23;76.44
64679;BME280;51094;53.864;27.676;2023-08-21T01:02:07;99446.44;;;21.29;76.65
64679;BME280;51094;53.864;27.676;2023-08-21T01:04:34;99461.66;;;21.27;76.39
64679;BME280;51094;53.864;27.676;2023-08-21T01:07:00;99463.19;;;21.21;76.43
64679;BME280;51094;53.864;27.676;2023-08-21T01:09:36;99466.97;;;21.18;76.44
64679;BME280;51094;53.864;27.676;2023-08-21T01:12:14;99461.84;;;21.17;76.56
64679;BME280;51094;53.864;27.676;2023-08-21T01:14:59;99466.78;;;21.20;76.68
64679;BME280;51094;53.864;27.676;2023-08-21T01:17:26;99463.63;;;21.24;77.00
64679;BME280;51094;53.864;27.676;2023-08-21T01:19:55;99459.84;;;21.27;76.89
64679;BME280;51094;53.864;27.676;2023-08-21T01:22:34;99462.31;;;21.29;76.69
64679;BME280;51094;53.864;27.676;2023-08-21T01:25:02;99428.66;;;21.06;76.81
64679;BME280;51094;53.864;27.676;2023-08-21T01:27:29;99465.66;;;21.22;76.72
64679;BME280;51094;53.864;27.676;2023-08-21T01:29:55;99457.72;;;21.14;76.60
64679;BME280;51094;53.864;27.676;2023-08-21T01:32:37;99457.56;;;21.08;76.89
64679;BME280;51094;53.864;27.676;2023-08-21T01:35:06;99449.16;;;21.04;77.19
64679;BME280;51094;53.864;27.676;2023-08-21T01:37:33;99453.44;;;21.05;77.36
64679;BME280;51094;53.864;27.676;2023-08-21T01:40:00;99451.47;;;21.07;77.19
64679;BME280;51094;53.864;27.676;2023-08-21T01:42:27;99461.38;;;21.05;77.39
64679;BME280;51094;53.864;27.676;2023-08-21T01:44:54;99453.31;;;20.99;77.10
64679;BME280;51094;53.864;27.676;2023-08-21T01:50:19;99443.56;;;20.91;77.33
64679;BME280;51094;53.864;27.676;2023-08-21T01:52:46;99444.91;;;20.87;77.46
64679;BME280;51094;53.864;27.676;2023-08-21T01:55:13;99448.44;;;20.79;77.61
64679;BME280;51094;53.864;27.676;2023-08-21T01:57:40;99448.75;;;20.76;77.80
64679;BME280;51094;53.864;27.676;2023-08-21T02:00:08;99454.38;;;20.73;77.73
64679;BME280;51094;53.864;27.676;2023-08-21T02:02:44;99455.88;;;20.68;78.13
64679;BME280;51094;53.864;27.676;2023-08-21T02:05:11;99454.88;;;20.69;78.30
64679;BME280;51094;53.864;27.676;2023-08-21T02:07:38;99456.38;;;20.71;78.31
64679;BME280;51094;53.864;27.676;2023-08-21T02:10:05;99451.56;;;20.75;78.28
64679;BME280;51094;53.864;27.676;2023-08-21T02:12:32;99452.88;;;20.79;78.39
64679;BME280;51094;53.864;27.676;2023-08-21T02:15:01;99455.31;;;20.80;78.04
64679;BME280;51094;53.864;27.676;2023-08-21T02:17:31;99465.44;;;20.77;78.01
64679;BME280;51094;53.864;27.676;2023-08-21T02:19:59;99462.13;;;20.75;77.88
64679;BME280;51094;53.864;27.676;2023-08-21T02:22:25;99456.69;;;20.68;77.60
64679;BME280;51094;53.864;27.676;2023-08-21T02:24:52;99459.00;;;20.63;77.90
64679;BME280;51094;53.864;27.676;2023-08-21T02:27:19;99463.81;;;20.59;78.05
64679;BME280;51094;53.864;27.676;2023-08-21T02:29:46;99469.91;;;20.60;78.16
64679;BME280;51094;53.864;27.676;2023-08-21T02:32:13;99467.09;;;20.62;78.08
64679;BME280;51094;53.864;27.676;2023-08-21T02:34:39;99475.03;;;20.62;78.13
64679;BME280;51094;53.864;27.676;2023-08-21T02:37:06;99478.16;;;20.65;78.16
64679;BME280;51094;53.864;27.676;2023-08-21T02:39:33;99476.34;;;20.66;77.70
64679;BME280;51094;53.864;27.676;2023-08-21T02:42:00;99480.16;;;20.63;77.74
64679;BME280;51094;53.864;27.676;2023-08-21T02:44:27;99473.72;;;20.66;77.79
64679;BME280;51094;53.864;27.676;2023-08-21T02:46:53;99462.97;;;20.67;77.73
64679;BME280;51094;53.864;27.676;2023-08-21T02:49:20;99481.97;;;20.63;77.64
64679;BME280;51094;53.864;27.676;2023-08-21T02:51:47;99485.78;;;20.52;77.78
64679;BME280;51094;53.864;27.676;2023-08-21T02:54:14;99476.19;;;20.51;77.73
64679;BME280;51094;53.864;27.676;2023-08-21T02:56:40;99480.00;;;20.48;77.72
64679;BME280;51094;53.864;27.676;2023-08-21T02:59:07;99477.34;;;20.48;77.54
64679;BME280;51094;53.864;27.676;2023-08-21T03:01:34;99472.06;;;20.48;77.66
64679;BME280;51094;53.864;27.676;2023-08-21T03:04:01;99472.72;;;20.50;77.97
64679;BME280;51094;53.864;27.676;2023-08-21T03:06:28;99473.72;;;20.49;77.94
64679;BME280;51094;53.864;27.676;2023-08-21T03:08:55;99473.06;;;20.47;78.11
64679;BME280;51094;53.864;27.676;2023-08-21T03:11:22;99469.44;;;20.48;78.04
64679;BME280;51094;53.864;27.676;2023-08-21T03:13:48;99464.97;;;20.49;77.80
64679;BME280;51094;53.864;27.676;2023-08-21T03:16:15;99467.44;;;20.50;77.72
64679;BME280;51094;53.864;27.676;2023-08-21T03:18:55;99469.75;;;20.53;78.13
64679;BME280;51094;53.864;27.676;2023-08-21T03:21:24;99476.19;;;20.59;78.16
64679;BME280;51094;53.864;27.676;2023-08-21T03:23:55;99469.44;;;20.56;77.73
64679;BME280;51094;53.864;27.676;2023-08-21T03:26:23;99472.91;;;20.57;77.84
64679;BME280;51094;53.864;27.676;2023-08-21T03:28:50;99469.91;;;20.60;78.01
64679;BME280;51094;53.864;27.676;2023-08-21T03:31:16;99470.56;;;20.62;78.09
64679;BME280;51094;53.864;27.676;2023-08-21T03:33:43;99474.03;;;20.63;78.11
64679;BME280;51094;53.864;27.676;2023-08-21T03:36:11;99475.03;;;20.62;78.02
64679;BME280;51094;53.864;27.676;2023-08-21T03:38:38;99475.38;;;20.58;77.85
64679;BME280;51094;53.864;27.676;2023-08-21T03:41:05;99465.78;;;20.57;78.10
64679;BME280;51094;53.864;27.676;2023-08-21T03:43:33;99463.81;;;20.59;77.89
64679;BME280;51094;53.864;27.676;2023-08-21T03:46:02;99455.38;;;20.64;77.84
64679;BME280;51094;53.864;27.676;2023-08-21T03:48:29;99463.16;;;20.57;77.69
64679;BME280;51094;53.864;27.676;2023-08-21T03:50:56;99469.75;;;20.53;77.54
64679;BME280;51094;53.864;27.676;2023-08-21T03:53:22;99467.78;;;20.55;78.14
64679;BME280;51094;53.864;27.676;2023-08-21T03:55:49;99457.19;;;20.64;78.51
64679;BME280;51094;53.864;27.676;2023-08-21T03:58:16;99461.81;;;20.70;78.36
64679;BME280;51094;53.864;27.676;2023-08-21T04:00:42;99461.31;;;20.74;78.29
64679;BME280;51094;53.864;27.676;2023-08-21T04:03:10;99463.25;;;20.80;78.42
64679;BME280;51094;53.864;27.676;2023-08-21T04:05:37;99460.44;;;20.82;77.99
64679;BME280;51094;53.864;27.676;2023-08-21T04:08:03;99463.09;;;20.82;78.40
64679;BME280;51094;53.864;27.676;2023-08-21T04:10:30;99461.94;;;20.84;78.16
64679;BME280;51094;53.864;27.676;2023-08-21T04:12:57;99459.28;;;20.92;78.36
64679;BME280;51094;53.864;27.676;2023-08-21T04:15:23;99461.41;;;20.97;78.24
64679;BME280;51094;53.864;27.676;2023-08-21T04:17:50;99462.53;;;21.03;78.18
64679;BME280;51094;53.864;27.676;2023-08-21T04:20:19;99462.22;;;21.06;77.78
64679;BME280;51094;53.864;27.676;2023-08-21T04:22:45;99469.16;;;21.07;78.11
64679;BME280;51094;53.864;27.676;2023-08-21T04:25:12;99462.88;;;21.08;78.13
64679;BME280;51094;53.864;27.676;2023-08-21T04:27:39;99460.53;;;21.13;77.93
64679;BME280;51094;53.864;27.676;2023-08-21T04:30:06;99461.03;;;21.16;77.74
64679;BME280;51094;53.864;27.676;2023-08-21T04:32:33;99459.66;;;21.29;78.28
64679;BME280;51094;53.864;27.676;2023-08-21T04:35:00;99455.16;;;21.37;77.84
64679;BME280;51094;53.864;27.676;2023-08-21T04:37:27;99457.97;;;21.36;77.28
64679;BME280;51094;53.864;27.676;2023-08-21T04:39:54;99463.63;;;21.33;77.33
64679;BME280;51094;53.864;27.676;2023-08-21T04:42:21;99468.56;;;21.36;77.46
64679;BME280;51094;53.864;27.676;2023-08-21T04:44:48;99467.88;;;21.42;77.51
64679;BME280;51094;53.864;27.676;2023-08-21T04:47:23;99467.34;;;21.46;77.58
64679;BME280;51094;53.864;27.676;2023-08-21T04:49:54;99462.38;;;21.51;77.34
64679;BME280;51094;53.864;27.676;2023-08-21T04:52:22;99461.38;;;21.52;76.82
64679;BME280;51094;53.864;27.676;2023-08-21T04:54:50;99460.22;;;21.55;77.12
64679;BME280;51094;53.864;27.676;2023-08-21T04:57:17;99466.81;;;21.59;76.87
64679;BME280;51094;53.864;27.676;2023-08-21T04:59:44;99465.28;;;21.65;76.71
64679;BME280;51094;53.864;27.676;2023-08-21T05:02:11;99464.28;;;21.66;76.74
64679;BME280;51094;53.864;27.676;2023-08-21T05:04:38;99457.53;;;21.63;76.28
64679;BME280;51094;53.864;27.676;2023-08-21T05:07:05;99456.88;;;21.61;76.81
64679;BME280;51094;53.864;27.676;2023-08-21T05:09:32;99463.38;;;21.50;76.31
64679;BME280;51094;53.864;27.676;2023-08-21T05:11:59;99465.50;;;21.55;77.20
64679;BME280;51094;53.864;27.676;2023-08-21T05:14:26;99463.47;;;21.65;77.29
64679;BME280;51094;53.864;27.676;2023-08-21T05:16:53;99458.44;;;21.70;76.89
64679;BME280;51094;53.864;27.676;2023-08-21T05:19:20;99453.31;;;21.69;76.89
64679;BME280;51094;53.864;27.676;2023-08-21T05:21:47;99465.88;;;21.75;76.73
64679;BME280;51094;53.864;27.676;2023-08-21T05:24:14;99461.03;;;21.78;76.86
64679;BME280;51094;53.864;27.676;2023-08-21T05:26:46;99464.16;;;21.82;76.94
64679;BME280;51094;53.864;27.676;2023-08-21T05:29:13;99460.78;;;21.96;76.79
64679;BME280;51094;53.864;27.676;2023-08-21T05:31:40;99462.75;;;22.02;76.59
64679;BME280;51094;53.864;27.676;2023-08-21T05:34:07;99460.94;;;22.03;76.07
64679;BME280;51094;53.864;27.676;2023-08-21T05:36:34;99456.13;;;21.98;76.04
64679;BME280;51094;53.864;27.676;2023-08-21T05:39:02;99453.97;;;22.02;76.53
64679;BME280;51094;53.864;27.676;2023-08-21T05:41:33;99448.53;;;22.18;77.32
64679;BME280;51094;53.864;27.676;2023-08-21T05:44:00;99452.34;;;22.38;76.86
64679;BME280;51094;53.864;27.676;2023-08-21T05:46:27;99459.69;;;22.51;76.62
64679;BME280;51094;53.864;27.676;2023-08-21T05:48:55;99448.72;;;22.54;75.87
64679;BME280;51094;53.864;27.676;2023-08-21T05:51:22;99446.25;;;22.67;75.99
64679;BME280;51094;53.864;27.676;2023-08-21T05:53:49;99448.38;;;22.72;75.09
64679;BME280;51094;53.864;27.676;2023-08-21T05:56:15;99447.56;;;22.71;75.38
64679;BME280;51094;53.864;27.676;2023-08-21T05:58:43;99444.72;;;22.73;74.81
64679;BME280;51094;53.864;27.676;2023-08-21T06:01:10;99442.44;;;22.70;74.88
64679;BME280;51094;53.864;27.676;2023-08-21T06:03:37;99445.38;;;22.75;74.78
64679;BME280;51094;53.864;27.676;2023-08-21T06:06:30;99442.47;;;22.84;75.15
64679;BME280;51094;53.864;27.676;2023-08-21T06:08:57;99440.09;;;22.89;74.47
64679;BME280;51094;53.864;27.676;2023-08-21T06:11:23;99440.00;;;22.98;74.38
64679;BME280;51094;53.864;27.676;2023-08-21T06:13:50;99446.03;;;23.06;73.98
64679;BME280;51094;53.864;27.676;2023-08-21T06:16:17;99438.53;;;23.10;73.72
64679;BME280;51094;53.864;27.676;2023-08-21T06:18:46;99436.69;;;23.10;73.38
64679;BME280;51094;53.864;27.676;2023-08-21T06:21:13;99438.06;;;23.06;73.14
64679;BME280;51094;53.864;27.676;2023-08-21T06:23:40;99436.25;;;23.07;73.49
64679;BME280;51094;53.864;27.676;2023-08-21T06:26:06;99437.16;;;23.14;72.93
64679;BME280;51094;53.864;27.676;2023-08-21T06:28:33;99435.97;;;23.16;73.02
64679;BME280;51094;53.864;27.676;2023-08-21T06:31:00;99441.28;;;23.16;72.68
64679;BME280;51094;53.864;27.676;2023-08-21T06:33:32;99443.19;;;23.22;72.30
64679;BME280;51094;53.864;27.676;2023-08-21T06:35:58;99440.63;;;23.29;72.63
64679;BME280;51094;53.864;27.676;2023-08-21T06:38:25;99443.53;;;23.34;72.20
64679;BME280;51094;53.864;27.676;2023-08-21T06:40:53;99442.41;;;23.43;71.82
64679;BME280;51094;53.864;27.676;2023-08-21T06:43:19;99442.59;;;23.42;71.22
64679;BME280;51094;53.864;27.676;2023-08-21T06:45:49;99442.59;;;23.42;70.72
64679;BME280;51094;53.864;27.676;2023-08-21T06:48:16;99442.34;;;23.37;71.01
64679;BME280;51094;53.864;27.676;2023-08-21T06:50:44;99451.78;;;23.39;70.82
64679;BME280;51094;53.864;27.676;2023-08-21T06:53:11;99443.69;;;23.47;71.56
64679;BME280;51094;53.864;27.676;2023-08-21T06:55:38;99450.56;;;23.57;71.32
64679;BME280;51094;53.864;27.676;2023-08-21T06:58:05;99450.44;;;23.65;71.53
64679;BME280;51094;53.864;27.676;2023-08-21T07:00:31;99452.44;;;23.77;71.71
64679;BME280;51094;53.864;27.676;2023-08-21T07:02:58;99451.09;;;23.67;71.06
64679;BME280;51094;53.864;27.676;2023-08-21T07:05:25;99459.97;;;23.59;71.47
64679;BME280;51094;53.864;27.676;2023-08-21T07:07:52;99453.56;;;23.68;71.72
64679;BME280;51094;53.864;27.676;2023-08-21T07:10:19;99447.03;;;23.71;71.21
64679;BME280;51094;53.864;27.676;2023-08-21T07:12:46;99444.50;;;23.84;71.88
64679;BME280;51094;53.864;27.676;2023-08-21T07:15:13;99447.09;;;23.99;71.70
64679;BME280;51094;53.864;27.676;2023-08-21T07:17:40;99446.22;;;24.13;70.74
64679;BME280;51094;53.864;27.676;2023-08-21T07:20:06;99441.03;;;24.26;71.43
64679;BME280;51094;53.864;27.676;2023-08-21T07:22:33;99443.28;;;24.50;71.13
64679;BME280;51094;53.864;27.676;2023-08-21T07:25:00;99439.72;;;24.65;70.18
64679;BME280;51094;53.864;27.676;2023-08-21T07:27:30;99447.31;;;24.68;68.78
64679;BME280;51094;53.864;27.676;2023-08-21T07:29:57;99444.03;;;24.72;69.35
64679;BME280;51094;53.864;27.676;2023-08-21T07:32:24;99443.28;;;24.85;68.91
64679;BME280;51094;53.864;27.676;2023-08-21T07:34:52;99436.38;;;24.91;68.97
64679;BME280;51094;53.864;27.676;2023-08-21T07:37:18;99446.50;;;25.02;68.56
64679;BME280;51094;53.864;27.676;2023-08-21T07:39:45;99449.34;;;25.00;66.68
64679;BME280;51094;53.864;27.676;2023-08-21T07:42:12;99457.34;;;25.00;67.24
64679;BME280;51094;53.864;27.676;2023-08-21T07:44:39;99455.94;;;25.04;67.16
64679;BME280;51094;53.864;27.676;2023-08-21T07:47:06;99454.09;;;25.05;66.83
64679;BME280;51094;53.864;27.676;2023-08-21T07:49:33;99454.53;;;25.15;66.70
64679;BME280;51094;53.864;27.676;2023-08-21T07:52:00;99451.88;;;25.08;65.63
64679;BME280;51094;53.864;27.676;2023-08-21T07:54:26;99445.69;;;25.01;65.70
64679;BME280;51094;53.864;27.676;2023-08-21T07:56:53;99440.59;;;25.06;66.12
64679;BME280;51094;53.864;27.676;2023-08-21T07:59:20;99438.38;;;24.82;65.97
64679;BME280;51094;53.864;27.676;2023-08-21T08:01:47;99439.66;;;24.93;66.68
64679;BME280;51094;53.864;27.676;2023-08-21T08:04:13;99436.91;;;25.07;65.54
64679;BME280;51094;53.864;27.676;2023-08-21T08:06:41;99442.91;;;25.23;65.81
64679;BME280;51094;53.864;27.676;2023-08-21T08:09:07;99431.53;;;25.42;65.08
64679;BME280;51094;53.864;27.676;2023-08-21T08:11:34;99431.97;;;25.52;64.27
64679;BME280;51094;53.864;27.676;2023-08-21T08:14:01;99429.16;;;25.73;64.40
64679;BME280;51094;53.864;27.676;2023-08-21T08:16:27;99427.56;;;25.85;62.50
64679;BME280;51094;53.864;27.676;2023-08-21T08:18:54;99431.47;;;26.03;62.71
64679;BME280;51094;53.864;27.676;2023-08-21T08:21:21;99427.78;;;26.17;62.28
64679;BME280;51094;53.864;27.676;2023-08-21T08:23:48;99428.59;;;26.04;61.07
64679;BME280;51094;53.864;27.676;2023-08-21T08:26:14;99433.53;;;26.27;61.16
64679;BME280;51094;53.864;27.676;2023-08-21T08:28:41;99429.47;;;26.31;60.02
64679;BME280;51094;53.864;27.676;2023-08-21T08:31:15;99432.72;;;26.46;59.75
64679;BME280;51094;53.864;27.676;2023-08-21T08:33:42;99432.91;;;26.71;59.88
64679;BME280;51094;53.864;27.676;2023-08-21T08:36:10;99425.44;;;26.93;59.04
64679;BME280;51094;53.864;27.676;2023-08-21T08:38:37;99428.91;;;27.13;58.61
64679;BME280;51094;53.864;27.676;2023-08-21T08:41:06;99411.13;;;27.39;58.36
64679;BME280;51094;53.864;27.676;2023-08-21T08:43:33;99407.75;;;27.63;57.11
64679;BME280;51094;53.864;27.676;2023-08-21T08:46:03;99407.75;;;27.88;56.53
64679;BME280;51094;53.864;27.676;2023-08-21T08:48:31;99402.38;;;27.95;55.90
64679;BME280;51094;53.864;27.676;2023-08-21T08:50:58;99403.94;;;27.77;55.74
64679;BME280;51094;53.864;27.676;2023-08-21T08:53:25;99409.00;;;27.54;55.96
64679;BME280;51094;53.864;27.676;2023-08-21T08:55:52;99392.66;;;27.31;56.26
64679;BME280;51094;53.864;27.676;2023-08-21T08:58:19;99387.84;;;27.14;56.67
64679;BME280;51094;53.864;27.676;2023-08-21T09:00:46;99396.88;;;27.13;57.16
64679;BME280;51094;53.864;27.676;2023-08-21T09:03:12;99391.59;;;27.38;57.32
64679;BME280;51094;53.864;27.676;2023-08-21T09:05:41;99386.38;;;27.63;56.84
64679;BME280;51094;53.864;27.676;2023-08-21T09:10:35;99384.53;;;27.89;55.99
64679;BME280;51094;53.864;27.676;2023-08-21T09:13:08;99375.56;;;28.08;56.55
64679;BME280;51094;53.864;27.676;2023-08-21T09:15:35;99366.81;;;28.44;54.42
64679;BME280;51094;53.864;27.676;2023-08-21T09:18:10;99364.06;;;28.69;54.43
64679;BME280;51094;53.864;27.676;2023-08-21T09:20:38;99364.75;;;29.01;53.65
64679;BME280;51094;53.864;27.676;2023-08-21T09:23:05;99366.25;;;29.27;52.79
64679;BME280;51094;53.864;27.676;2023-08-21T09:25:35;99364.44;;;29.69;52.92
64679;BME280;51094;53.864;27.676;2023-08-21T09:28:08;99361.16;;;30.08;50.91
64679;BME280;51094;53.864;27.676;2023-08-21T09:30:48;99367.38;;;29.91;51.02
64679;BME280;51094;53.864;27.676;2023-08-21T09:33:22;99359.31;;;29.37;49.34
64679;BME280;51094;53.864;27.676;2023-08-21T09:35:52;99366.88;;;29.10;50.42
64679;BME280;51094;53.864;27.676;2023-08-21T09:38:19;99357.81;;;29.11;50.80
64679;BME280;51094;53.864;27.676;2023-08-21T09:40:50;99346.09;;;28.94;51.35
64679;BME280;51094;53.864;27.676;2023-08-21T09:43:17;99344.59;;;28.80;51.30
64679;BME280;51094;53.864;27.676;2023-08-21T09:45:48;99340.28;;;28.61;51.83
64679;BME280;51094;53.864;27.676;2023-08-21T09:48:15;99334.09;;;28.78;51.41
64679;BME280;51094;53.864;27.676;2023-08-21T09:50:42;99330.56;;;29.14;51.55
64679;BME280;51094;53.864;27.676;2023-08-21T09:53:13;99334.34;;;29.25;50.97
64679;BME280;51094;53.864;27.676;2023-08-21T09:55:40;99328.41;;;29.41;49.76
64679;BME280;51094;53.864;27.676;2023-08-21T09:58:08;99335.00;;;29.39;48.15
64679;BME280;51094;53.864;27.676;2023-08-21T10:00:36;99332.75;;;29.36;48.86
64679;BME280;51094;53.864;27.676;2023-08-21T10:03:07;99331.44;;;29.45;48.70
64679;BME280;51094;53.864;27.676;2023-08-21T10:05:37;99320.03;;;29.61;48.48
64679;BME280;51094;53.864;27.676;2023-08-21T10:08:04;99311.00;;;30.09;48.76
64679;BME280;51094;53.864;27.676;2023-08-21T10:10:34;99297.44;;;30.51;48.19
64679;BME280;51094;53.864;27.676;2023-08-21T10:13:01;99302.97;;;30.84;45.14
64679;BME280;51094;53.864;27.676;2023-08-21T10:15:28;99300.13;;;30.51;45.37
64679;BME280;51094;53.864;27.676;2023-08-21T10:17:56;99303.91;;;30.26;46.11
64679;BME280;51094;53.864;27.676;2023-08-21T10:20:24;99297.38;;;30.22;46.74
64679;BME280;51094;53.864;27.676;2023-08-21T10:22:54;99301.00;;;30.16;46.92
64679;BME280;51094;53.864;27.676;2023-08-21T10:25:23;99294.00;;;30.15;46.99
64679;BME280;51094;53.864;27.676;2023-08-21T10:27:57;99287.88;;;29.61;47.92
64679;BME280;51094;53.864;27.676;2023-08-21T10:30:25;99278.38;;;29.35;48.43
64679;BME280;51094;53.864;27.676;2023-08-21T10:32:53;99282.09;;;29.34;49.56
64679;BME280;51094;53.864;27.676;2023-08-21T10:35:21;99283.03;;;30.05;48.65
64679;BME280;51094;53.864;27.676;2023-08-21T10:40:34;99268.56;;;31.09;44.57
64679;BME280;51094;53.864;27.676;2023-08-21T10:43:01;99261.94;;;30.72;44.52
64679;BME280;51094;53.864;27.676;2023-08-21T10:45:29;99265.06;;;30.17;45.37
64679;BME280;51094;53.864;27.676;2023-08-21T10:47:57;99264.00;;;29.95;46.54
64679;BME280;51094;53.864;27.676;2023-08-21T10:50:24;99268.78;;;29.58;46.58
64679;BME280;51094;53.864;27.676;2023-08-21T10:52:52;99277.56;;;29.05;47.87
64679;BME280;51094;53.864;27.676;2023-08-21T10:55:19;99270.06;;;28.84;48.72
64679;BME280;51094;53.864;27.676;2023-08-21T10:57:47;99275.50;;;29.07;49.22
64679;BME280;51094;53.864;27.676;2023-08-21T11:00:15;99254.31;;;29.94;46.95
64679;BME280;51094;53.864;27.676;2023-08-21T11:02:44;99261.16;;;30.60;44.11
64679;BME280;51094;53.864;27.676;2023-08-21T11:05:11;99034.41;;;29.60;43.34
64679;BME280;51094;53.864;27.676;2023-08-21T11:07:39;99250.91;;;31.64;41.92
64679;BME280;51094;53.864;27.676;2023-08-21T11:10:07;99250.69;;;31.82;41.75
64679;BME280;51094;53.864;27.676;2023-08-21T11:12:56;99250.00;;;32.47;39.66
64679;BME280;51094;53.864;27.676;2023-08-21T11:15:27;99246.28;;;32.75;39.01
64679;BME280;51094;53.864;27.676;2023-08-21T11:17:55;99244.34;;;32.97;38.58
64679;BME280;51094;53.864;27.676;2023-08-21T11:20:27;99243.66;;;33.34;36.61
64679;BME280;51094;53.864;27.676;2023-08-21T11:23:01;99240.75;;;33.14;35.77
64679;BME280;51094;53.864;27.676;2023-08-21T11:25:34;99234.78;;;33.38;35.26
64679;BME280;51094;53.864;27.676;2023-08-21T11:28:04;99232.44;;;33.79;34.31
64679;BME280;51094;53.864;27.676;2023-08-21T11:30:31;99231.50;;;34.06;32.04
64679;BME280;51094;53.864;27.676;2023-08-21T11:33:07;99228.19;;;33.56;32.10
64679;BME280;51094;53.864;27.676;2023-08-21T11:35:37;99228.22;;;33.98;31.52
64679;BME280;51094;53.864;27.676;2023-08-21T11:38:04;99243.06;;;34.53;30.66
64679;BME280;51094;53.864;27.676;2023-08-21T11:40:35;99226.41;;;34.87;29.99
64679;BME280;51094;53.864;27.676;2023-08-21T11:43:02;99234.97;;;34.68;29.78
64679;BME280;51094;53.864;27.676;2023-08-21T11:45:30;99235.53;;;34.03;31.67
64679;BME280;51094;53.864;27.676;2023-08-21T11:48:10;99222.38;;;35.25;31.04
64679;BME280;51094;53.864;27.676;2023-08-21T11:50:38;99227.97;;;34.62;30.93
64679;BME280;51094;53.864;27.676;2023-08-21T11:53:05;99229.63;;;33.32;32.38
64679;BME280;51094;53.864;27.676;2023-08-21T11:55:37;99228.88;;;35.09;30.37
64679;BME280;51094;53.864;27.676;2023-08-21T11:58:07;99222.63;;;34.83;30.07
64679;BME280;51094;53.864;27.676;2023-08-21T12:00:33;99232.22;;;33.54;31.96
64679;BME280;51094;53.864;27.676;2023-08-21T12:03:00;99219.94;;;35.94;30.09
64679;BME280;51094;53.864;27.676;2023-08-21T12:05:29;99222.06;;;36.67;27.39
64679;BME280;51094;53.864;27.676;2023-08-21T12:07:55;99214.00;;;34.18;30.24
64679;BME280;51094;53.864;27.676;2023-08-21T12:10:26;99219.81;;;33.21;31.70
64679;BME280;51094;53.864;27.676;2023-08-21T12:12:54;99223.44;;;36.64;28.74
64679;BME280;51094;53.864;27.676;2023-08-21T12:15:21;99218.91;;;39.79;23.18
64679;BME280;51094;53.864;27.676;2023-08-21T12:17:48;99214.09;;;41.03;21.12
64679;BME280;51094;53.864;27.676;2023-08-21T12:20:15;99204.63;;;42.24;20.64
64679;BME280;51094;53.864;27.676;2023-08-21T12:22:42;99217.09;;;43.25;19.31
64679;BME280;51094;53.864;27.676;2023-08-21T12:25:09;99207.25;;;43.15;19.60
64679;BME280;51094;53.864;27.676;2023-08-21T12:27:36;99220.06;;;43.96;18.36
64679;BME280;51094;53.864;27.676;2023-08-21T12:30:04;99216.84;;;44.53;17.83
64679;BME280;51094;53.864;27.676;2023-08-21T12:32:31;99210.41;;;43.52;18.91
64679;BME280;51094;53.864;27.676;2023-08-21T12:34:58;99217.16;;;43.46;19.26
64679;BME280;51094;53.864;27.676;2023-08-21T12:37:25;99225.16;;;42.87;19.00
64679;BME280;51094;53.864;27.676;2023-08-21T12:39:53;99201.53;;;42.08;20.32
64679;BME280;51094;53.864;27.676;2023-08-21T12:42:20;99204.00;;;39.11;22.89
64679;BME280;51094;53.864;27.676;2023-08-21T12:44:47;99201.94;;;37.80;25.50
64679;BME280;51094;53.864;27.676;2023-08-21T12:47:13;99041.47;;;36.13;27.22
64679;BME280;51094;53.864;27.676;2023-08-21T12:49:40;99198.84;;;35.91;27.32
64679;BME280;51094;53.864;27.676;2023-08-21T12:52:07;99193.69;;;34.63;29.36
64679;BME280;51094;53.864;27.676;2023-08-21T12:54:36;99204.97;;;33.18;30.00
64679;BME280;51094;53.864;27.676;2023-08-21T12:57:03;99207.91;;;32.19;32.98
64679;BME280;51094;53.864;27.676;2023-08-21T12:59:34;99201.72;;;31.97;33.87
64679;BME280;51094;53.864;27.676;2023-08-21T13:02:02;99204.81;;;32.27;32.73